createdAt,value
2023-12-30T00:00:42.856Z,68.79
2023-12-30T00:01:39.605Z,66.72
2023-12-30T00:02:39.491Z,67.05
2023-12-30T00:03:39.536Z,66.39
2023-12-30T00:04:44.367Z,71.55
2023-12-30T00:05:39.504Z,69.86
2023-12-30T00:06:39.588Z,67.86
2023-12-30T00:07:41.765Z,65.91
2023-12-30T00:08:40.492Z,71.45
2023-12-30T00:09:41.471Z,66.04
2023-12-30T00:10:39.411Z,68.80
2023-12-30T00:11:39.525Z,57.30
2023-12-30T00:12:44.521Z,67.10
2023-12-30T00:13:40.783Z,68.99
2023-12-30T00:14:43.085Z,67.62
2023-12-30T00:15:40.313Z,72.22
2023-12-30T00:16:40.755Z,68.25
2023-12-30T00:17:40.263Z,63.90
2023-12-30T00:18:44.945Z,66.11
2023-12-30T00:19:41.666Z,69.05
2023-12-30T00:20:41.801Z,65.51
2023-12-30T00:21:44.477Z,67.64
2023-12-30T00:22:40.518Z,53.95
2023-12-30T00:23:45.909Z,67.08
2023-12-30T00:24:42.862Z,73.02
2023-12-30T00:25:42.749Z,59.73
2023-12-30T00:26:40.460Z,61.86
2023-12-30T00:27:39.926Z,70.22
2023-12-30T00:28:41.302Z,66.42
2023-12-30T00:29:46.931Z,68.44
2023-12-30T00:30:39.268Z,69.36
2023-12-30T00:31:40.521Z,57.68
2023-12-30T00:32:39.365Z,59.73
2023-12-30T00:33:40.639Z,61.71
2023-12-30T00:34:42.126Z,68.00
2023-12-30T00:35:40.403Z,71.36
2023-12-30T00:36:41.747Z,60.13
2023-12-30T00:37:41.317Z,63.74
2023-12-30T00:38:40.593Z,64.63
2023-12-30T00:39:41.820Z,63.72
2023-12-30T00:40:39.605Z,57.18
2023-12-30T00:41:41.510Z,65.85
2023-12-30T00:42:41.171Z,62.08
2023-12-30T00:43:40.651Z,64.06
2023-12-30T00:44:41.493Z,59.89
2023-12-30T00:45:39.057Z,58.10
2023-12-30T00:46:40.099Z,60.97
2023-12-30T00:47:39.050Z,63.68
2023-12-30T00:48:39.309Z,62.28
2023-12-30T00:49:42.640Z,66.87
2023-12-30T00:50:38.990Z,51.46
2023-12-30T00:51:41.394Z,65.86
2023-12-30T00:52:40.709Z,61.35
2023-12-30T00:53:40.555Z,65.84
2023-12-30T00:54:44.679Z,58.78
2023-12-30T00:55:40.930Z,67.75
2023-12-30T00:56:40.343Z,66.30
2023-12-30T00:57:41.009Z,59.68
2023-12-30T00:58:38.895Z,53.67
2023-12-30T00:59:39.441Z,58.15
2023-12-30T01:00:42.169Z,73.55
2023-12-30T01:01:39.465Z,64.23
2023-12-30T01:02:39.364Z,69.95
2023-12-30T01:03:38.893Z,68.23
2023-12-30T01:04:39.051Z,59.63
2023-12-30T01:05:40.108Z,51.31
2023-12-30T01:06:40.676Z,69.29
2023-12-30T01:07:40.154Z,69.13
2023-12-30T01:08:39.171Z,70.93
2023-12-30T01:09:38.746Z,58.82
2023-12-30T01:10:39.334Z,64.05
2023-12-30T01:11:40.491Z,67.46
2023-12-30T01:12:39.177Z,68.16
2023-12-30T01:13:38.768Z,64.73
2023-12-30T01:14:40.116Z,61.16
2023-12-30T01:15:38.705Z,52.43
2023-12-30T01:16:42.510Z,47.73
2023-12-30T01:17:41.250Z,58.38
2023-12-30T01:18:38.924Z,65.23
2023-12-30T01:19:38.677Z,69.48
2023-12-30T01:20:40.012Z,70.43
2023-12-30T01:21:38.631Z,60.96
2023-12-30T01:22:38.803Z,64.33
2023-12-30T01:23:39.933Z,62.42
2023-12-30T01:24:38.612Z,67.72
2023-12-30T01:25:41.243Z,60.34
2023-12-30T01:26:39.647Z,62.90
2023-12-30T01:27:39.852Z,66.34
2023-12-30T01:28:39.825Z,67.99
2023-12-30T01:29:38.555Z,61.59
2023-12-30T01:30:40.097Z,68.78
2023-12-30T01:31:40.919Z,67.90
2023-12-30T01:32:39.950Z,60.54
2023-12-30T01:33:40.864Z,49.99
2023-12-30T01:34:38.636Z,61.63
2023-12-30T01:35:38.505Z,65.70
2023-12-30T01:36:38.496Z,63.42
2023-12-30T01:37:38.560Z,57.14
2023-12-30T01:38:38.529Z,69.78
2023-12-30T01:39:38.514Z,64.17
2023-12-30T01:40:38.469Z,63.20
2023-12-30T01:41:38.489Z,68.94
2023-12-30T01:42:38.442Z,63.08
2023-12-30T01:43:38.596Z,67.31
2023-12-30T01:44:38.368Z,69.66
2023-12-30T01:45:39.632Z,65.57
2023-12-30T01:46:38.363Z,61.92
2023-12-30T01:47:38.687Z,66.70
2023-12-30T01:48:38.440Z,65.00
2023-12-30T01:49:38.468Z,65.02
2023-12-30T01:50:40.486Z,66.11
2023-12-30T01:51:38.290Z,52.44
2023-12-30T01:52:38.422Z,58.09
2023-12-30T01:53:38.506Z,60.08
2023-12-30T01:54:38.284Z,58.89
2023-12-30T01:55:41.461Z,62.41
2023-12-30T01:56:39.262Z,71.14
2023-12-30T01:57:38.865Z,59.92
2023-12-30T01:58:40.203Z,57.01
2023-12-30T01:59:38.210Z,61.32
2023-12-30T02:00:40.093Z,69.43
2023-12-30T02:01:39.807Z,67.23
2023-12-30T02:02:39.292Z,65.02
2023-12-30T02:03:38.367Z,64.73
2023-12-30T02:04:38.346Z,53.25
2023-12-30T02:05:38.290Z,64.78
2023-12-30T02:06:38.206Z,59.72
2023-12-30T02:07:38.173Z,66.88
2023-12-30T02:08:39.174Z,68.00
2023-12-30T02:09:38.244Z,69.62
2023-12-30T02:10:38.190Z,57.70
2023-12-30T02:11:38.143Z,65.68
2023-12-30T02:12:38.189Z,65.71
2023-12-30T02:13:38.759Z,70.20
2023-12-30T02:14:38.135Z,67.66
2023-12-30T02:15:38.068Z,66.78
2023-12-30T02:16:38.115Z,49.33
2023-12-30T02:17:38.159Z,48.03
2023-12-30T02:18:38.143Z,57.46
2023-12-30T02:19:38.038Z,65.86
2023-12-30T02:20:41.044Z,61.13
2023-12-30T02:21:38.712Z,64.87
2023-12-30T02:22:39.094Z,66.48
2023-12-30T02:23:39.017Z,58.88
2023-12-30T02:24:39.194Z,57.86
2023-12-30T02:25:38.077Z,48.29
2023-12-30T02:26:40.234Z,59.90
2023-12-30T02:27:38.993Z,57.29
2023-12-30T02:28:38.240Z,63.16
2023-12-30T02:29:38.138Z,49.04
2023-12-30T02:30:40.061Z,63.40
2023-12-30T02:31:38.898Z,65.80
2023-12-30T02:32:37.934Z,65.92
2023-12-30T02:33:38.046Z,58.07
2023-12-30T02:34:37.926Z,71.12
2023-12-30T02:35:38.840Z,65.71
2023-12-30T02:36:37.809Z,63.22
2023-12-30T02:37:38.778Z,55.62
2023-12-30T02:38:37.808Z,66.24
2023-12-30T02:39:37.993Z,62.13
2023-12-30T02:40:38.527Z,54.19
2023-12-30T02:41:37.773Z,55.28
2023-12-30T02:42:37.801Z,62.07
2023-12-30T02:43:37.821Z,66.76
2023-12-30T02:44:38.681Z,67.01
2023-12-30T02:45:40.125Z,66.60
2023-12-30T02:46:37.896Z,64.76
2023-12-30T02:47:38.024Z,49.69
2023-12-30T02:48:37.742Z,66.58
2023-12-30T02:49:37.753Z,58.00
2023-12-30T02:50:38.653Z,62.22
2023-12-30T02:51:39.016Z,62.76
2023-12-30T02:52:38.494Z,61.91
2023-12-30T02:53:38.155Z,65.93
2023-12-30T02:54:39.045Z,48.32
2023-12-30T02:55:40.204Z,61.27
2023-12-30T02:56:38.574Z,50.45
2023-12-30T02:57:48.574Z,66.96
2023-12-30T02:58:38.600Z,55.26
2023-12-30T02:59:38.616Z,67.58
2023-12-30T03:00:37.683Z,58.02
2023-12-30T03:01:40.193Z,55.21
2023-12-30T03:02:38.218Z,58.55
2023-12-30T03:03:37.545Z,62.38
2023-12-30T03:04:38.594Z,67.60
2023-12-30T03:05:39.386Z,63.77
2023-12-30T03:06:38.203Z,54.70
2023-12-30T03:07:37.454Z,70.68
2023-12-30T03:08:39.104Z,57.07
2023-12-30T03:09:38.586Z,66.81
2023-12-30T03:10:39.031Z,67.43
2023-12-30T03:11:39.953Z,60.81
2023-12-30T03:12:38.534Z,71.63
2023-12-30T03:13:38.930Z,62.64
2023-12-30T03:14:37.408Z,64.97
2023-12-30T03:15:37.395Z,66.64
2023-12-30T03:16:37.440Z,67.95
2023-12-30T03:17:37.700Z,47.56
2023-12-30T03:18:37.467Z,62.34
2023-12-30T03:19:37.368Z,64.88
2023-12-30T03:20:37.342Z,63.22
2023-12-30T03:21:37.383Z,51.76
2023-12-30T03:22:37.356Z,59.26
2023-12-30T03:23:37.372Z,71.05
2023-12-30T03:24:37.355Z,66.20
2023-12-30T03:25:37.400Z,64.22
2023-12-30T03:26:37.283Z,68.31
2023-12-30T03:27:38.409Z,55.85
2023-12-30T03:28:37.317Z,70.58
2023-12-30T03:29:37.257Z,64.80
2023-12-30T03:30:37.276Z,66.22
2023-12-30T03:31:37.232Z,64.64
2023-12-30T03:32:37.254Z,61.36
2023-12-30T03:33:37.375Z,61.91
2023-12-30T03:34:37.414Z,58.33
2023-12-30T03:35:37.151Z,65.13
2023-12-30T03:36:37.147Z,66.64
2023-12-30T03:37:37.234Z,66.04
2023-12-30T03:38:37.185Z,64.67
2023-12-30T03:39:37.280Z,64.17
2023-12-30T03:40:37.180Z,65.13
2023-12-30T03:41:37.084Z,61.38
2023-12-30T03:42:37.071Z,49.71
2023-12-30T03:43:37.183Z,70.53
2023-12-30T03:44:37.087Z,60.78
2023-12-30T03:45:37.031Z,74.69
2023-12-30T03:46:37.071Z,68.26
2023-12-30T03:47:37.055Z,66.86
2023-12-30T03:48:37.028Z,65.96
2023-12-30T03:49:37.183Z,66.87
2023-12-30T03:50:37.555Z,61.51
2023-12-30T03:51:37.049Z,56.33
2023-12-30T03:52:37.104Z,61.75
2023-12-30T03:53:37.039Z,69.10
2023-12-30T03:54:36.980Z,69.17
2023-12-30T03:55:37.137Z,66.11
2023-12-30T03:56:36.936Z,69.61
2023-12-30T03:57:37.537Z,67.88
2023-12-30T03:58:36.970Z,68.78
2023-12-30T03:59:36.962Z,71.11
2023-12-30T04:00:36.979Z,67.81
2023-12-30T04:01:38.083Z,56.46
2023-12-30T04:02:36.972Z,71.11
2023-12-30T04:03:36.841Z,70.38
2023-12-30T04:04:36.941Z,66.39
2023-12-30T04:05:36.873Z,65.52
2023-12-30T04:06:36.803Z,54.84
2023-12-30T04:07:36.909Z,58.86
2023-12-30T04:08:36.816Z,66.90
2023-12-30T04:09:36.747Z,65.05
2023-12-30T04:10:36.875Z,54.69
2023-12-30T04:11:36.796Z,70.23
2023-12-30T04:12:36.830Z,65.43
2023-12-30T04:13:36.798Z,70.93
2023-12-30T04:14:36.725Z,62.51
2023-12-30T04:15:37.625Z,70.71
2023-12-30T04:16:36.733Z,66.79
2023-12-30T04:17:36.815Z,64.80
2023-12-30T04:18:38.260Z,68.78
2023-12-30T04:19:36.726Z,72.49
2023-12-30T04:20:36.711Z,68.94
2023-12-30T04:21:36.661Z,67.05
2023-12-30T04:22:36.704Z,62.44
2023-12-30T04:23:36.667Z,68.27
2023-12-30T04:24:36.660Z,64.35
2023-12-30T04:25:36.786Z,64.77
2023-12-30T04:26:36.670Z,69.44
2023-12-30T04:27:36.659Z,68.78
2023-12-30T04:28:36.742Z,65.28
2023-12-30T04:29:36.660Z,65.04
2023-12-30T04:30:36.737Z,67.94
2023-12-30T04:31:36.660Z,67.42
2023-12-30T04:32:36.605Z,67.69
2023-12-30T04:33:36.828Z,69.70
2023-12-30T04:34:36.566Z,71.31
2023-12-30T04:35:36.573Z,72.16
2023-12-30T04:36:36.501Z,70.30
2023-12-30T04:37:36.738Z,63.49
2023-12-30T04:38:36.463Z,56.85
2023-12-30T04:39:36.638Z,65.50
2023-12-30T04:40:36.634Z,65.45
2023-12-30T04:41:36.782Z,69.21
2023-12-30T04:42:36.650Z,70.44
2023-12-30T04:43:36.483Z,69.20
2023-12-30T04:44:36.504Z,61.66
2023-12-30T04:45:36.420Z,63.34
2023-12-30T04:46:36.487Z,68.83
2023-12-30T04:47:36.387Z,70.53
2023-12-30T04:48:36.460Z,62.33
2023-12-30T04:49:36.495Z,70.12
2023-12-30T04:50:36.625Z,64.21
2023-12-30T04:51:36.720Z,65.42
2023-12-30T04:52:36.670Z,59.44
2023-12-30T04:53:36.282Z,69.35
2023-12-30T04:54:36.329Z,69.82
2023-12-30T04:55:38.377Z,68.50
2023-12-30T04:56:37.921Z,73.07
2023-12-30T04:57:36.258Z,68.12
2023-12-30T04:58:36.227Z,66.50
2023-12-30T04:59:38.923Z,70.38
2023-12-30T05:00:38.236Z,61.47
2023-12-30T05:01:37.792Z,65.39
2023-12-30T05:02:37.904Z,68.36
2023-12-30T05:03:37.160Z,68.56
2023-12-30T05:04:37.895Z,72.73
2023-12-30T05:05:37.580Z,64.40
2023-12-30T05:06:37.547Z,68.39
2023-12-30T05:07:41.096Z,70.80
2023-12-30T05:08:36.177Z,60.08
2023-12-30T05:09:37.172Z,70.79
2023-12-30T05:10:36.311Z,67.25
2023-12-30T05:11:36.062Z,65.82
2023-12-30T05:12:37.646Z,70.32
2023-12-30T05:13:38.068Z,69.98
2023-12-30T05:14:37.243Z,72.11
2023-12-30T05:15:38.423Z,66.55
2023-12-30T05:16:40.168Z,72.32
2023-12-30T05:17:37.449Z,69.53
2023-12-30T05:18:36.124Z,71.59
2023-12-30T05:19:40.106Z,70.58
2023-12-30T05:20:36.979Z,70.29
2023-12-30T05:21:39.059Z,68.44
2023-12-30T05:22:37.443Z,69.24
2023-12-30T05:23:39.438Z,68.77
2023-12-30T05:24:35.967Z,70.25
2023-12-30T05:25:37.036Z,71.73
2023-12-30T05:26:36.017Z,69.30
2023-12-30T05:27:35.894Z,69.87
2023-12-30T05:28:37.141Z,69.46
2023-12-30T05:29:35.883Z,71.25
2023-12-30T05:30:36.468Z,71.99
2023-12-30T05:31:36.295Z,69.01
2023-12-30T05:32:37.497Z,69.96
2023-12-30T05:33:36.023Z,70.21
2023-12-30T05:34:39.466Z,68.09
2023-12-30T05:35:36.070Z,69.15
2023-12-30T05:36:35.789Z,72.60
2023-12-30T05:37:39.724Z,69.68
2023-12-30T05:38:38.155Z,73.08
2023-12-30T05:39:36.757Z,70.65
2023-12-30T05:40:37.202Z,68.93
2023-12-30T05:41:35.719Z,57.73
2023-12-30T05:42:35.855Z,70.54
2023-12-30T05:43:37.014Z,68.57
2023-12-30T05:44:35.698Z,71.71
2023-12-30T05:45:36.696Z,70.73
2023-12-30T05:46:36.746Z,69.78
2023-12-30T05:47:35.722Z,67.41
2023-12-30T05:48:35.688Z,67.65
2023-12-30T05:49:39.088Z,73.05
2023-12-30T05:50:35.642Z,67.56
2023-12-30T05:51:36.798Z,71.51
2023-12-30T05:52:36.709Z,66.94
2023-12-30T05:53:35.733Z,69.99
2023-12-30T05:54:36.708Z,69.77
2023-12-30T05:55:35.714Z,72.75
2023-12-30T05:56:37.110Z,62.25
2023-12-30T05:57:39.360Z,71.30
2023-12-30T05:58:36.882Z,74.91
2023-12-30T05:59:37.265Z,73.46
2023-12-30T06:00:36.491Z,69.86
2023-12-30T06:01:36.554Z,69.89
2023-12-30T06:02:35.689Z,71.37
2023-12-30T06:03:36.571Z,63.08
2023-12-30T06:04:36.752Z,69.37
2023-12-30T06:05:36.402Z,70.14
2023-12-30T06:06:37.397Z,71.44
2023-12-30T06:07:35.545Z,57.77
2023-12-30T06:08:35.449Z,65.23
2023-12-30T06:09:38.576Z,69.15
2023-12-30T06:10:42.412Z,69.10
2023-12-30T06:11:37.385Z,63.02
2023-12-30T06:12:35.395Z,71.41
2023-12-30T06:13:36.912Z,72.06
2023-12-30T06:14:36.427Z,70.42
2023-12-30T06:15:37.640Z,69.99
2023-12-30T06:16:36.732Z,61.38
2023-12-30T06:17:36.178Z,62.65
2023-12-30T06:18:36.398Z,65.77
2023-12-30T06:19:35.336Z,69.50
2023-12-30T06:20:40.468Z,71.19
2023-12-30T06:21:38.190Z,68.60
2023-12-30T06:22:36.415Z,69.93
2023-12-30T06:23:36.734Z,67.54
2023-12-30T06:24:35.278Z,69.68
2023-12-30T06:25:35.591Z,67.29
2023-12-30T06:26:35.217Z,72.04
2023-12-30T06:27:36.232Z,71.72
2023-12-30T06:28:35.388Z,68.73
2023-12-30T06:29:37.599Z,65.64
2023-12-30T06:30:36.414Z,71.37
2023-12-30T06:31:36.980Z,69.92
2023-12-30T06:32:35.242Z,66.77
2023-12-30T06:33:38.421Z,69.42
2023-12-30T06:34:36.350Z,69.87
2023-12-30T06:35:36.769Z,68.64
2023-12-30T06:36:35.119Z,72.70
2023-12-30T06:37:37.727Z,70.92
2023-12-30T06:38:38.713Z,72.45
2023-12-30T06:39:35.099Z,70.09
2023-12-30T06:40:35.157Z,69.63
2023-12-30T06:41:36.248Z,69.33
2023-12-30T06:42:37.717Z,74.01
2023-12-30T06:43:36.136Z,71.80
2023-12-30T06:44:35.037Z,70.58
2023-12-30T06:45:36.654Z,67.09
2023-12-30T06:46:36.831Z,71.84
2023-12-30T06:47:35.040Z,71.07
2023-12-30T06:48:36.501Z,74.47
2023-12-30T06:49:34.988Z,71.57
2023-12-30T06:50:36.177Z,73.19
2023-12-30T06:51:36.027Z,71.27
2023-12-30T06:52:38.198Z,74.93
2023-12-30T06:53:36.142Z,70.50
2023-12-30T06:54:36.910Z,72.59
2023-12-30T06:55:38.789Z,70.14
2023-12-30T06:56:36.950Z,73.46
2023-12-30T06:57:39.990Z,66.81
2023-12-30T06:58:34.939Z,63.73
2023-12-30T06:59:37.530Z,71.57
2023-12-30T07:00:36.413Z,65.40
2023-12-30T07:01:37.689Z,66.29
2023-12-30T07:02:34.930Z,68.93
2023-12-30T07:03:38.713Z,69.75
2023-12-30T07:04:36.835Z,68.81
2023-12-30T07:05:34.878Z,68.79
2023-12-30T07:06:36.262Z,71.51
2023-12-30T07:07:35.206Z,75.32
2023-12-30T07:08:37.255Z,73.73
2023-12-30T07:09:36.916Z,66.78
2023-12-30T07:10:34.894Z,71.38
2023-12-30T07:11:37.029Z,73.22
2023-12-30T07:12:38.454Z,64.41
2023-12-30T07:13:35.982Z,67.23
2023-12-30T07:14:35.973Z,69.99
2023-12-30T07:15:36.931Z,72.03
2023-12-30T07:16:37.127Z,70.32
2023-12-30T07:17:36.790Z,67.53
2023-12-30T07:18:34.659Z,72.15
2023-12-30T07:19:35.830Z,72.24
2023-12-30T07:20:34.637Z,73.19
2023-12-30T07:21:35.910Z,69.47
2023-12-30T07:22:35.732Z,70.40
2023-12-30T07:23:35.900Z,71.68
2023-12-30T07:24:34.584Z,72.67
2023-12-30T07:25:38.105Z,74.07
2023-12-30T07:26:38.993Z,74.42
2023-12-30T07:27:36.693Z,70.89
2023-12-30T07:28:36.188Z,71.37
2023-12-30T07:29:39.368Z,71.29
2023-12-30T07:30:34.663Z,71.35
2023-12-30T07:31:36.030Z,72.13
2023-12-30T07:32:37.087Z,73.20
2023-12-30T07:33:35.748Z,71.02
2023-12-30T07:34:34.657Z,69.62
2023-12-30T07:35:35.657Z,71.88
2023-12-30T07:36:34.484Z,69.43
2023-12-30T07:37:38.682Z,70.34
2023-12-30T07:38:36.668Z,72.58
2023-12-30T07:39:34.491Z,69.94
2023-12-30T07:40:35.736Z,75.31
2023-12-30T07:41:36.809Z,75.18
2023-12-30T07:42:37.102Z,71.73
2023-12-30T07:43:34.579Z,73.53
2023-12-30T07:44:35.956Z,75.38
2023-12-30T07:45:35.463Z,74.46
2023-12-30T07:46:38.993Z,69.89
2023-12-30T07:47:34.336Z,74.19
2023-12-30T07:48:34.381Z,75.04
2023-12-30T07:49:37.294Z,72.49
2023-12-30T07:50:35.451Z,72.06
2023-12-30T07:51:36.994Z,72.83
2023-12-30T07:52:36.923Z,70.66
2023-12-30T07:53:34.815Z,73.19
2023-12-30T07:54:35.509Z,74.32
2023-12-30T07:55:36.292Z,74.07
2023-12-30T07:56:35.243Z,73.83
2023-12-30T07:57:34.202Z,72.85
2023-12-30T07:58:38.649Z,76.07
2023-12-30T07:59:38.293Z,74.87
2023-12-30T08:00:34.215Z,73.39
2023-12-30T08:01:34.254Z,69.82
2023-12-30T08:02:34.375Z,71.13
2023-12-30T08:03:35.503Z,72.02
2023-12-30T08:04:35.184Z,73.01
2023-12-30T08:05:35.318Z,75.45
2023-12-30T08:06:35.102Z,73.89
2023-12-30T08:07:36.282Z,72.80
2023-12-30T08:08:36.605Z,73.48
2023-12-30T08:09:36.639Z,74.27
2023-12-30T08:11:42.560Z,72.99
2023-12-30T08:12:37.337Z,74.01
2023-12-30T08:13:38.018Z,71.41
2023-12-30T08:14:36.149Z,72.65
2023-12-30T08:15:34.668Z,74.27
2023-12-30T08:16:36.171Z,76.63
2023-12-30T08:17:34.255Z,73.78
2023-12-30T08:18:34.313Z,74.48
2023-12-30T08:19:34.145Z,72.87
2023-12-30T08:20:33.975Z,73.98
2023-12-30T08:21:34.126Z,73.01
2023-12-30T08:22:34.043Z,73.21
2023-12-30T08:23:33.939Z,76.09
2023-12-30T08:24:33.945Z,72.27
2023-12-30T08:25:34.016Z,74.14
2023-12-30T08:26:33.977Z,71.06
2023-12-30T08:27:34.912Z,72.21
2023-12-30T08:28:33.897Z,76.52
2023-12-30T08:29:33.876Z,73.63
2023-12-30T08:30:33.937Z,73.93
2023-12-30T08:31:33.950Z,73.74
2023-12-30T08:32:33.864Z,75.20
2023-12-30T08:33:34.018Z,75.16
2023-12-30T08:34:33.977Z,76.20
2023-12-30T08:35:34.070Z,71.83
2023-12-30T08:36:33.842Z,74.77
2023-12-30T08:37:33.872Z,75.80
2023-12-30T08:38:33.761Z,75.81
2023-12-30T08:39:33.757Z,73.90
2023-12-30T08:40:36.239Z,74.29
2023-12-30T08:41:33.750Z,75.37
2023-12-30T08:42:33.793Z,74.37
2023-12-30T08:43:33.768Z,72.89
2023-12-30T08:44:33.711Z,74.44
2023-12-30T08:45:33.749Z,75.45
2023-12-30T08:46:33.819Z,77.37
2023-12-30T08:47:33.668Z,72.91
2023-12-30T08:48:33.841Z,75.77
2023-12-30T08:49:33.809Z,74.66
2023-12-30T08:50:33.737Z,74.35
2023-12-30T08:51:33.818Z,75.23
2023-12-30T08:52:33.693Z,75.22
2023-12-30T08:53:33.678Z,74.59
2023-12-30T08:54:33.622Z,73.46
2023-12-30T08:55:33.665Z,73.82
2023-12-30T08:56:33.794Z,74.19
2023-12-30T08:57:33.559Z,74.16
2023-12-30T08:58:33.652Z,75.36
2023-12-30T08:59:34.017Z,75.88
2023-12-30T09:00:33.644Z,76.02
2023-12-30T09:01:33.633Z,70.42
2023-12-30T09:02:33.494Z,70.16
2023-12-30T09:03:33.615Z,74.68
2023-12-30T09:04:33.604Z,75.62
2023-12-30T09:05:33.688Z,75.99
2023-12-30T09:06:33.458Z,73.26
2023-12-30T09:07:33.712Z,75.75
2023-12-30T09:08:33.441Z,74.24
2023-12-30T09:09:33.482Z,74.30
2023-12-30T09:10:33.592Z,74.66
2023-12-30T09:11:33.448Z,76.25
2023-12-30T09:12:33.398Z,74.16
2023-12-30T09:13:33.414Z,75.24
2023-12-30T09:14:33.529Z,75.53
2023-12-30T09:15:33.364Z,75.04
2023-12-30T09:16:33.393Z,75.72
2023-12-30T09:17:33.521Z,75.78
2023-12-30T09:18:33.387Z,74.36
2023-12-30T09:19:33.424Z,74.92
2023-12-30T09:20:33.428Z,74.03
2023-12-30T09:21:33.297Z,74.01
2023-12-30T09:22:33.342Z,73.63
2023-12-30T09:23:33.329Z,75.08
2023-12-30T09:24:33.268Z,75.69
2023-12-30T09:25:33.269Z,74.22
2023-12-30T09:26:33.226Z,76.23
2023-12-30T09:27:33.250Z,74.64
2023-12-30T09:28:33.344Z,75.58
2023-12-30T09:29:33.257Z,74.89
2023-12-30T09:30:33.261Z,76.67
2023-12-30T09:31:33.204Z,75.51
2023-12-30T09:32:33.205Z,71.94
2023-12-30T09:33:33.441Z,74.68
2023-12-30T09:34:41.339Z,74.66
2023-12-30T09:35:35.245Z,76.79
2023-12-30T09:36:33.141Z,75.89
2023-12-30T09:37:33.192Z,73.56
2023-12-30T09:38:33.178Z,76.04
2023-12-30T09:39:33.088Z,77.10
2023-12-30T09:40:33.207Z,75.78
2023-12-30T09:41:33.135Z,75.39
2023-12-30T09:42:33.055Z,72.66
2023-12-30T09:43:33.072Z,75.67
2023-12-30T09:44:33.083Z,75.91
2023-12-30T09:45:33.068Z,76.38
2023-12-30T09:46:33.056Z,76.00
2023-12-30T09:47:33.091Z,75.23
2023-12-30T09:48:33.209Z,74.69
2023-12-30T09:49:33.052Z,75.66
2023-12-30T09:50:32.992Z,74.76
2023-12-30T09:51:32.974Z,75.22
2023-12-30T09:52:33.100Z,74.84
2023-12-30T09:53:33.025Z,77.44
2023-12-30T09:54:42.326Z,75.31
2023-12-30T09:55:35.042Z,75.61
2023-12-30T09:56:32.944Z,77.58
2023-12-30T09:57:32.950Z,74.21
2023-12-30T09:58:32.927Z,74.49
2023-12-30T09:59:32.916Z,75.46
2023-12-30T10:00:32.900Z,75.06
2023-12-30T10:01:33.056Z,75.13
2023-12-30T10:02:32.859Z,75.83
2023-12-30T10:03:39.065Z,74.41
2023-12-30T10:04:37.082Z,75.79
2023-12-30T10:05:36.123Z,73.14
2023-12-30T10:06:37.010Z,77.15
2023-12-30T10:07:35.204Z,76.61
2023-12-30T10:08:35.365Z,74.28
2023-12-30T10:09:34.864Z,75.69
2023-12-30T10:10:35.037Z,76.39
2023-12-30T10:11:35.505Z,76.90
2023-12-30T10:12:34.209Z,75.84
2023-12-30T10:13:34.268Z,76.25
2023-12-30T10:14:35.438Z,76.31
2023-12-30T10:15:36.325Z,73.76
2023-12-30T10:16:35.033Z,77.39
2023-12-30T10:17:33.988Z,77.12
2023-12-30T10:18:34.577Z,76.36
2023-12-30T10:19:36.585Z,73.64
2023-12-30T10:20:33.473Z,75.44
2023-12-30T10:21:37.487Z,73.84
2023-12-30T10:22:34.200Z,74.52
2023-12-30T10:23:32.615Z,75.91
2023-12-30T10:24:36.686Z,76.87
2023-12-30T10:25:32.800Z,75.66
2023-12-30T10:26:37.106Z,77.19
2023-12-30T10:27:36.702Z,75.49
2023-12-30T10:28:36.155Z,75.26
2023-12-30T10:29:46.059Z,73.79
2023-12-30T10:30:35.713Z,77.54
2023-12-30T10:31:35.366Z,75.88
2023-12-30T10:32:34.151Z,74.50
2023-12-30T10:33:36.229Z,76.09
2023-12-30T10:34:34.771Z,74.91
2023-12-30T10:35:34.274Z,74.77
2023-12-30T10:36:32.478Z,73.68
2023-12-30T10:37:38.366Z,75.93
2023-12-30T10:38:34.234Z,75.26
2023-12-30T10:39:35.357Z,75.51
2023-12-30T10:40:35.750Z,76.56
2023-12-30T10:41:35.022Z,78.15
2023-12-30T10:42:32.654Z,75.64
2023-12-30T10:43:49.435Z,75.31
2023-12-30T10:44:35.183Z,76.22
2023-12-30T10:45:33.914Z,75.47
2023-12-30T10:46:32.901Z,76.07
2023-12-30T10:47:32.427Z,76.16
2023-12-30T10:48:34.986Z,77.02
2023-12-30T10:49:32.843Z,75.88
2023-12-30T10:50:36.683Z,75.36
2023-12-30T10:51:35.324Z,76.26
2023-12-30T10:52:33.583Z,75.40
2023-12-30T10:53:32.257Z,75.79
2023-12-30T10:54:32.325Z,75.37
2023-12-30T10:55:33.723Z,75.62
2023-12-30T10:56:32.897Z,74.77
2023-12-30T10:57:33.652Z,75.53
2023-12-30T10:58:36.824Z,77.92
2023-12-30T10:59:34.556Z,76.22
2023-12-30T11:00:34.296Z,76.69
2023-12-30T11:01:33.823Z,74.86
2023-12-30T11:02:32.754Z,74.31
2023-12-30T11:03:34.672Z,74.95
2023-12-30T11:04:32.216Z,75.47
2023-12-30T11:05:35.344Z,74.47
2023-12-30T11:06:32.220Z,75.24
2023-12-30T11:07:34.771Z,76.45
2023-12-30T11:08:33.756Z,76.37
2023-12-30T11:09:34.643Z,75.62
2023-12-30T11:10:35.219Z,75.15
2023-12-30T11:11:34.643Z,75.72
2023-12-30T11:12:33.000Z,75.87
2023-12-30T11:13:35.879Z,75.34
2023-12-30T11:14:32.181Z,74.13
2023-12-30T11:15:34.456Z,75.78
2023-12-30T11:16:34.321Z,74.25
2023-12-30T11:17:33.736Z,74.25
2023-12-30T11:18:33.566Z,74.46
2023-12-30T11:19:34.136Z,74.81
2023-12-30T11:20:32.052Z,75.32
2023-12-30T11:21:33.383Z,75.67
2023-12-30T11:22:33.572Z,74.54
2023-12-30T11:23:33.273Z,75.75
2023-12-30T11:24:33.784Z,74.71
2023-12-30T11:25:33.410Z,74.81
2023-12-30T11:26:32.001Z,74.92
2023-12-30T11:27:32.932Z,72.83
2023-12-30T11:28:33.206Z,74.35
2023-12-30T11:29:31.899Z,75.54
2023-12-30T11:30:35.491Z,76.44
2023-12-30T11:31:31.900Z,75.45
2023-12-30T11:32:33.666Z,76.05
2023-12-30T11:33:34.365Z,76.89
2023-12-30T11:34:33.595Z,75.57
2023-12-30T11:35:33.032Z,75.77
2023-12-30T11:36:33.108Z,76.19
2023-12-30T11:37:35.022Z,76.38
2023-12-30T11:38:32.494Z,75.22
2023-12-30T11:39:32.818Z,76.12
2023-12-30T11:40:33.228Z,76.34
2023-12-30T11:41:34.052Z,73.87
2023-12-30T11:42:48.239Z,76.13
2023-12-30T11:43:33.923Z,77.32
2023-12-30T11:44:32.333Z,77.37
2023-12-30T11:45:34.921Z,76.30
2023-12-30T11:46:32.191Z,75.98
2023-12-30T11:47:33.924Z,78.40
2023-12-30T11:48:31.899Z,76.78
2023-12-30T11:49:33.422Z,74.98
2023-12-30T11:50:31.734Z,75.71
2023-12-30T11:51:31.720Z,76.45
2023-12-30T11:52:31.725Z,74.52
2023-12-30T11:53:31.701Z,76.52
2023-12-30T11:54:31.639Z,74.59
2023-12-30T11:55:31.673Z,76.61
2023-12-30T11:56:31.815Z,74.46
2023-12-30T11:57:31.735Z,76.20
2023-12-30T11:58:31.657Z,76.97
2023-12-30T11:59:31.754Z,77.56
2023-12-30T12:00:31.721Z,76.51
2023-12-30T12:01:31.714Z,76.61
2023-12-30T12:02:31.629Z,76.66
2023-12-30T12:03:31.605Z,76.42
2023-12-30T12:04:31.638Z,73.52
2023-12-30T12:05:31.592Z,75.88
2023-12-30T12:06:31.578Z,77.13
2023-12-30T12:07:31.647Z,74.52
2023-12-30T12:08:31.488Z,77.41
2023-12-30T12:09:31.608Z,77.25
2023-12-30T12:10:31.595Z,76.56
2023-12-30T12:11:31.514Z,75.76
2023-12-30T12:12:31.447Z,76.68
2023-12-30T12:13:31.682Z,76.23
2023-12-30T12:14:31.408Z,77.57
2023-12-30T12:15:31.642Z,77.47
2023-12-30T12:16:31.421Z,77.20
2023-12-30T12:17:31.536Z,74.34
2023-12-30T12:18:31.476Z,78.07
2023-12-30T12:19:31.504Z,75.77
2023-12-30T12:20:31.397Z,76.40
2023-12-30T12:21:31.445Z,78.16
2023-12-30T12:22:31.450Z,74.43
2023-12-30T12:23:31.508Z,76.15
2023-12-30T12:24:31.416Z,76.63
2023-12-30T12:25:31.403Z,76.44
2023-12-30T12:26:33.055Z,75.32
2023-12-30T12:27:31.294Z,74.55
2023-12-30T12:28:31.383Z,76.19
2023-12-30T12:29:31.442Z,76.34
2023-12-30T12:30:31.290Z,75.75
2023-12-30T12:31:31.394Z,75.62
2023-12-30T12:32:33.003Z,77.13
2023-12-30T12:33:31.240Z,73.17
2023-12-30T12:34:31.295Z,76.10
2023-12-30T12:35:31.240Z,76.03
2023-12-30T12:36:31.294Z,74.78
2023-12-30T12:37:31.653Z,74.12
2023-12-30T12:38:31.164Z,76.00
2023-12-30T12:39:31.201Z,75.28
2023-12-30T12:40:31.178Z,75.68
2023-12-30T12:41:31.107Z,75.10
2023-12-30T12:42:31.560Z,76.09
2023-12-30T12:43:31.272Z,75.30
2023-12-30T12:44:31.152Z,76.32
2023-12-30T12:45:31.660Z,76.31
2023-12-30T12:46:31.179Z,75.84
2023-12-30T12:47:31.166Z,74.32
2023-12-30T12:48:31.193Z,73.78
2023-12-30T12:49:31.515Z,74.31
2023-12-30T12:50:31.157Z,74.21
2023-12-30T12:51:31.741Z,74.67
2023-12-30T12:52:32.118Z,74.57
2023-12-30T12:53:31.076Z,73.90